Latest Weather Observations for Smithton

IDT60801

Issued at 10:31 am EDT Monday 30 March 2015 (issued every 30 minutes, with the page automatically refreshed every 10 minutes)

About weather observations | Map of weather stations | Latest weather observations for TAS | Other Formats
Station Details ID: 091292 Name: SMITHTON AERODROME Lat: -40.83 Lon: 145.08 Height: 7.5 m
Data from the previous 72 hours. | See also: Recent months at Smithton
Date/Time
EDT
Temp
°C
App
Temp
°C
Dew
Point
Rel
Hum
%
Delta-T
°C
Wind Press
QNH
hPa
Press
MSL
hPa
Rain
since 9 am
mm
Dir
 
Spd
km/h
Gust
km/h
Spd
kts
Gust
kts
30/10:30am 17.1 14.3 14.2 83 1.6 W 22 30 12 16 1022.7 - 0.0
30/10:00am 16.4 14.3 15.3 93 0.6 W 20 26 11 14 1022.4 - 0.0
30/09:30am 15.4 11.8 14.3 93 0.6 W 26 39 14 21 1022.1 - 0.0
30/09:00am 16.3 15.1 15.0 92 0.7 WNW 15 20 8 11 1021.7 1021.7 0.2
30/08:30am 15.8 14.5 14.7 93 0.6 WNW 15 20 8 11 1021.4 - 0.2
30/08:00am 15.5 14.1 14.5 94 0.6 WNW 15 17 8 9 1021.4 - 0.2
30/07:30am 15.4 14.3 14.3 93 0.6 NW 13 17 7 9 1021.1 - 0.2
30/07:00am 15.3 13.8 14.3 94 0.6 WNW 15 19 8 10 1020.8 - 0.2
30/06:30am 15.4 14.0 14.6 95 0.5 WNW 15 19 8 10 1020.6 - 0.2
30/06:00am 15.4 14.3 14.4 94 0.6 WNW 13 17 7 9 1020.4 1020.4 0.2
30/05:30am 15.6 14.6 14.6 94 0.6 WNW 13 17 7 9 1020.3 - 0.2
30/05:00am 15.7 14.3 14.6 93 0.6 WNW 15 19 8 10 1020.3 - 0.2
30/04:30am 15.7 15.1 14.7 94 0.6 NW 11 15 6 8 1020.4 - 0.2
30/04:00am 15.5 14.5 14.5 94 0.6 WNW 13 17 7 9 1020.4 - 0.2
30/03:30am 15.5 13.7 14.5 94 0.6 WNW 17 19 9 10 1020.6 - 0.2
30/03:00am 15.5 14.1 14.4 93 0.6 NW 15 20 8 11 1020.6 1020.6 0.2
30/02:30am 15.3 14.2 14.2 93 0.6 NW 13 17 7 9 1020.8 - 0.2
30/02:00am 15.1 13.9 14.0 93 0.6 WNW 13 17 7 9 1020.9 - 0.2
30/01:30am 15.1 13.4 13.6 91 0.8 WNW 15 20 8 11 1020.9 - 0.2
30/01:00am 15.6 13.6 13.8 89 1.0 WNW 17 22 9 12 1021.0 - 0.2
30/12:30am 15.7 13.8 14.2 91 0.9 WNW 17 22 9 12 1021.0 - 0.2
30/12:00am 15.6 13.2 14.3 92 0.7 WNW 20 28 11 15 1021.0 1021.0 0.2
 
Date/Time
EDT
Temp
°C
App
Temp
°C
Dew
Point
Rel
Hum
%
Delta-T
°C
Wind Press
QNH
hPa
Press
MSL
hPa
Rain
since 9 am
mm
Dir
 
Spd
km/h
Gust
km/h
Spd
kts
Gust
kts
29/11:30pm 15.5 13.3 14.4 93 0.6 NW 19 22 10 12 1021.2 - 0.2
29/11:00pm 15.0 13.9 14.4 96 0.3 WNW 13 15 7 8 1021.3 - 0.2
29/10:30pm 14.6 13.3 13.8 95 0.4 WNW 13 15 7 8 1021.1 - 0.2
29/10:00pm 14.4 13.5 13.6 95 0.4 WNW 11 13 6 7 1021.1 - 0.2
29/09:30pm 14.2 13.2 13.4 95 0.4 WNW 11 13 6 7 1021.0 - 0.2
29/09:00pm 14.5 12.7 13.4 93 0.6 WNW 15 19 8 10 1020.7 1020.7 0.2
29/08:30pm 14.9 13.1 13.4 91 0.8 WNW 15 22 8 12 1020.4 - 0.2
29/08:00pm 15.4 13.4 13.9 91 0.8 WNW 17 24 9 13 1020.3 - 0.2
29/07:30pm 15.9 13.3 13.9 88 1.1 WNW 20 26 11 14 1019.9 - 0.2
29/07:00pm 16.2 13.6 13.7 85 1.4 W 20 26 11 14 1019.7 - 0.2
29/06:30pm 16.5 13.1 13.8 84 1.5 W 24 33 13 18 1019.5 - 0.2
29/06:00pm 16.8 13.8 13.7 82 1.7 W 22 30 12 16 1019.4 1019.4 0.2
29/05:30pm 17.0 13.2 13.7 81 1.9 W 26 33 14 18 1019.2 - 0.2
29/05:00pm 17.4 13.6 13.5 78 2.2 W 26 33 14 18 1019.1 - 0.2
29/04:30pm 17.6 13.6 12.9 74 2.6 W 26 35 14 19 1019.0 - 0.2
29/04:00pm 17.2 11.8 12.9 76 2.4 W 33 43 18 23 1019.0 - 0.2
29/03:30pm 17.4 12.7 13.1 76 2.4 W 30 39 16 21 1019.2 - 0.2
29/03:00pm 17.5 12.7 12.8 74 2.6 W 30 41 16 22 1019.1 1019.1 0.2
29/02:30pm 17.6 12.3 12.5 72 2.8 W 32 41 17 22 1019.1 - 0.2
29/02:00pm 17.9 13.9 13.0 73 2.7 WNW 26 35 14 19 1019.2 - 0.2
29/01:30pm 18.1 12.9 12.8 71 3.0 W 32 39 17 21 1019.2 - 0.2
29/01:00pm 18.7 14.2 12.7 68 3.4 W 28 37 15 20 1019.2 - 0.2
29/12:30pm 17.4 12.5 12.5 73 2.7 W 30 37 16 20 1019.5 - 0.2
29/12:00pm 17.0 12.0 12.3 74 2.6 W 30 39 16 21 1019.5 1019.5 0.2
29/11:30am 17.6 13.7 13.3 76 2.4 WNW 26 41 14 22 1019.6 - 0.2
29/11:00am 17.7 13.0 13.2 75 2.5 W 30 44 16 24 1019.5 - 0.2
29/10:30am 15.8 11.4 12.9 83 1.6 W 28 39 15 21 1019.6 - 0.2
29/10:00am 15.6 13.3 14.0 90 0.9 W 19 24 10 13 1019.5 - 0.2
29/09:30am 14.6 12.4 13.3 92 0.7 WNW 17 22 9 12 1019.4 - 0.0
29/09:00am 13.9 10.5 12.5 91 0.8 W 22 32 12 17 1019.5 1019.5 0.2
29/08:52am 14.2 9.5 12.1 87 1.1 W 28 32 15 17 1019.4 - 0.2
29/08:30am 14.4 12.8 11.7 84 1.4 NW 11 13 6 7 1019.2 - 0.2
29/08:00am 13.9 12.2 11.1 83 1.5 NW 11 13 6 7 1019.0 - 0.2
29/07:30am 14.0 11.4 10.6 80 1.8 WNW 15 20 8 11 1018.9 - 0.2
29/07:00am 13.7 11.4 10.3 80 1.8 W 13 26 7 14 1019.0 - 0.2
29/06:30am 13.5 11.7 10.7 83 1.5 W 11 17 6 9 1018.8 - 0.2
29/06:00am 13.3 11.4 10.5 83 1.5 W 11 15 6 8 1018.6 1018.6 0.2
29/05:30am 13.7 11.4 10.5 81 1.7 W 13 17 7 9 1018.6 - 0.2
29/05:00am 13.9 10.4 10.3 79 1.9 WNW 19 26 10 14 1018.7 - 0.2
29/04:30am 13.7 10.6 10.3 80 1.8 W 17 20 9 11 1018.7 - 0.2
29/04:00am 13.5 11.1 10.1 80 1.8 W 13 17 7 9 1018.9 - 0.2
29/03:30am 13.3 11.2 9.7 79 1.8 W 11 17 6 9 1018.6 - 0.2
29/03:00am 12.8 11.1 10.0 83 1.4 W 9 13 5 7 1018.9 1018.9 0.2
29/02:30am 12.6 11.3 10.1 85 1.3 W 7 9 4 5 1019.2 - 0.2
29/02:00am 13.0 11.0 10.0 82 1.5 W 11 13 6 7 1019.5 - 0.2
29/01:30am 12.5 10.9 10.2 86 1.2 W 9 13 5 7 1019.7 - 0.2
29/01:00am 12.7 9.5 10.1 84 1.3 W 17 20 9 11 1019.8 - 0.2
29/12:30am 11.5 11.1 11.0 97 0.3 WSW 4 9 2 5 1020.1 - 0.2
29/12:00am 11.6 11.9 11.0 96 0.3 CALM 0 0 0 0 1020.5 1020.5 0.2
 
Date/Time
EDT
Temp
°C
App
Temp
°C
Dew
Point
Rel
Hum
%
Delta-T
°C
Wind Press
QNH
hPa
Press
MSL
hPa
Rain
since 9 am
mm
Dir
 
Spd
km/h
Gust
km/h
Spd
kts
Gust
kts
28/11:30pm 11.6 12.0 11.1 97 0.3 CALM 0 0 0 0 1020.6 - 0.2
28/11:00pm 11.6 11.2 11.0 96 0.3 WSW 4 7 2 4 1020.8 - 0.2
28/10:30pm 11.5 11.4 10.9 96 0.3 WSW 2 6 1 3 1021.1 - 0.2
28/10:00pm 11.4 11.7 10.9 97 0.3 CALM 0 6 0 3 1021.3 - 0.2
28/09:30pm 11.3 11.6 10.8 97 0.3 CALM 0 7 0 4 1021.2 - 0.2
28/09:00pm 11.2 10.0 10.4 95 0.4 WSW 7 9 4 5 1021.3 1021.3 0.2
28/08:30pm 11.8 8.8 10.5 92 0.7 WSW 17 24 9 13 1021.3 - 0.2
28/08:00pm 12.2 10.8 10.8 91 0.7 WSW 9 11 5 6 1021.1 - 0.2
28/07:30pm 12.1 10.6 10.7 91 0.7 WSW 9 11 5 6 1021.0 - 0.2
28/07:00pm 12.2 9.2 10.6 90 0.8 WSW 17 22 9 12 1021.1 - 0.2
28/06:30pm 12.3 8.0 10.7 90 0.8 W 24 32 13 17 1021.2 - 0.2
28/06:00pm 14.1 9.8 9.5 74 2.3 W 22 30 12 16 1021.1 1021.1 0.2
28/05:30pm 14.0 10.3 9.6 75 2.3 SW 19 26 10 14 1021.0 - 0.2
28/05:00pm 15.7 11.8 10.9 73 2.6 W 22 32 12 17 1021.3 - 0.2
28/04:30pm 15.6 11.6 10.4 71 2.7 W 22 32 12 17 1021.4 - 0.2
28/04:00pm 16.0 10.7 11.4 74 2.5 W 30 35 16 19 1021.6 - 0.2
28/03:30pm 15.7 12.1 10.5 71 2.7 WSW 20 28 11 15 1021.6 - 0.2
28/03:00pm 15.6 11.5 10.2 70 2.8 W 22 35 12 19 1021.7 1021.7 0.2
28/02:30pm 15.5 11.8 10.3 71 2.7 WSW 20 26 11 14 1021.9 - 0.2
28/02:00pm 15.8 12.6 9.9 68 3.1 W 17 26 9 14 1022.1 - 0.2
28/01:30pm 15.3 11.5 9.9 70 2.8 WSW 20 26 11 14 1022.5 - 0.2
28/01:00pm 15.3 11.9 10.5 73 2.5 SW 19 26 10 14 1022.8 - 0.2
28/12:30pm 13.9 10.0 10.9 82 1.6 SW 22 28 12 15 1023.2 - 0.2
28/12:00pm 15.2 11.9 10.8 75 2.3 WSW 19 26 10 14 1023.4 1023.4 0.2
28/11:30am 15.5 12.3 11.1 75 2.3 W 19 26 10 14 1023.6 - 0.2
28/11:00am 12.8 10.3 11.0 89 0.9 W 15 26 8 14 1023.6 - 0.2
28/10:30am 13.9 10.8 10.3 79 1.9 WSW 17 22 9 12 1023.9 - 0.0
28/10:00am 13.0 9.7 10.9 87 1.1 SW 19 28 10 15 1023.9 - 0.0
28/09:30am 12.4 10.0 11.5 94 0.5 SSW 15 19 8 10 1023.9 - 0.0
28/09:00am 11.0 9.2 10.8 99 0.1 SW 11 15 6 8 1023.8 1023.8 0.2
28/08:30am 10.0 8.7 9.9 99 0.1 SW 7 9 4 5 1023.6 - 0.2
28/08:00am 8.1 5.9 8.0 99 0.0 SW 9 11 5 6 1023.3 - 0.2
28/07:30am 7.7 5.4 7.6 99 0.0 SW 9 11 5 6 1023.1 - 0.2
28/07:00am 7.7 6.0 7.6 99 0.0 SW 6 7 3 4 1022.9 - 0.2
28/06:30am 7.6 5.3 7.3 98 0.1 SW 9 11 5 6 1022.8 - 0.2
28/06:00am 8.0 6.1 7.6 97 0.2 SW 7 9 4 5 1022.6 1022.6 0.2
28/05:30am 8.9 6.8 8.3 96 0.3 WSW 9 13 5 7 1022.3 - 0.2
28/05:00am 10.3 7.4 9.7 96 0.3 WSW 15 19 8 10 1022.3 - 0.2
28/04:30am 10.7 8.3 10.1 96 0.3 WSW 13 19 7 10 1022.4 - 0.2
28/04:00am 11.0 8.5 9.8 92 0.6 WSW 13 15 7 8 1022.5 - 0.2
28/03:30am 11.1 8.4 8.8 86 1.1 WSW 13 17 7 9 1022.5 - 0.2
28/03:00am 10.7 8.3 8.8 88 0.9 WSW 11 13 6 7 1022.6 1022.6 0.2
28/02:30am 9.8 7.7 8.1 89 0.8 WSW 9 13 5 7 1022.6 - 0.2
28/02:00am 9.6 6.7 8.2 91 0.7 WSW 13 15 7 8 1022.7 - 0.2
28/01:30am 9.2 6.6 7.6 90 0.8 WSW 11 13 6 7 1022.6 - 0.2
28/01:00am 10.8 7.7 8.7 87 1.0 WSW 15 20 8 11 1022.7 - 0.2
28/12:30am 10.5 7.6 9.7 95 0.4 WSW 15 17 8 9 1022.8 - 0.2
28/12:00am 10.3 8.4 8.9 91 0.7 SW 9 11 5 6 1023.0 1023.0 0.2
 
Date/Time
EDT
Temp
°C
App
Temp
°C
Dew
Point
Rel
Hum
%
Delta-T
°C
Wind Press
QNH
hPa
Press
MSL
hPa
Rain
since 9 am
mm
Dir
 
Spd
km/h
Gust
km/h
Spd
kts
Gust
kts
27/11:30pm 11.7 8.1 9.9 89 0.9 SW 19 24 10 13 1023.0 - 0.2
27/11:00pm 11.7 7.2 9.9 89 0.9 WSW 24 30 13 16 1023.0 - 0.2
27/10:30pm 11.9 8.9 9.3 84 1.3 WSW 15 20 8 11 1023.0 - 0.2
27/10:00pm 11.7 9.5 9.3 85 1.2 SW 11 13 6 7 1023.1 - 0.2
27/09:30pm 11.7 8.3 9.1 84 1.3 SW 17 22 9 12 1022.8 - 0.2
27/09:00pm 11.8 7.1 9.2 84 1.3 SW 24 32 13 17 1022.4 1022.4 0.2
27/08:30pm 12.1 7.5 9.5 84 1.3 SW 24 37 13 20 1022.1 - 0.2
27/08:00pm 12.0 7.4 9.7 86 1.2 SW 24 33 13 18 1021.7 - 0.2
27/07:30pm 12.2 6.9 9.9 86 1.2 SW 28 35 15 19 1021.3 - 0.2
27/07:00pm 12.7 7.2 10.4 86 1.2 SW 30 41 16 22 1020.9 - 0.2
27/06:30pm 12.9 7.4 10.4 85 1.3 SW 30 41 16 22 1020.5 - 0.2
27/06:00pm 13.8 8.4 10.8 82 1.6 SW 30 39 16 21 1020.1 1020.1 0.2
27/05:30pm 14.0 7.6 10.6 80 1.8 SW 35 46 19 25 1019.6 - 0.2
27/05:00pm 14.2 8.4 11.4 83 1.5 SW 33 46 18 25 1019.3 - 0.2
27/04:30pm 15.0 9.0 10.8 76 2.2 SW 33 46 18 25 1019.1 - 0.2
27/04:00pm 15.3 8.3 11.1 76 2.2 SW 39 50 21 27 1018.7 - 0.2
27/03:30pm 15.3 7.4 10.9 75 2.3 SW 43 54 23 29 1018.5 - 0.2
27/03:00pm 16.5 10.0 11.6 73 2.7 SW 37 56 20 30 1018.3 1018.3 0.2
27/02:38pm 16.6 9.0 11.9 74 2.6 SW 43 63 23 34 1018.3 - 0.2
27/02:30pm 16.2 9.0 11.8 75 2.4 SW 41 57 22 31 1018.2 - 0.2
27/02:00pm 16.6 9.6 12.6 77 2.2 SW 41 61 22 33 1018.3 - 0.2
27/01:30pm 16.0 8.6 12.4 79 2.0 SW 43 63 23 34 1018.1 - 0.2
27/01:22pm 15.7 8.2 12.1 79 2.0 SW 43 63 23 34 1018.1 - 0.2
27/01:00pm 14.9 8.2 12.4 85 1.4 SW 39 54 21 29 1018.0 - 0.2
27/12:30pm 14.5 8.4 13.0 91 0.8 SW 37 50 20 27 1018.1 - 0.2
27/12:00pm 13.7 7.8 12.3 91 0.8 SW 35 46 19 25 1017.8 1017.8 0.2
27/11:30am 14.3 8.2 12.9 91 0.8 SW 37 50 20 27 1017.4 - 0.2
27/11:00am 13.6 7.7 12.5 93 0.6 WSW 35 46 19 25 1017.0 - 0.2

Other Formats:

Comma delimited format used in spreadsheet applications
http://www.bom.gov.au/fwo/IDT60801/IDT60801.94953.axf

JavaScript Object Notation format (JSON) in row-major order
http://www.bom.gov.au/fwo/IDT60801/IDT60801.94953.json